createdAt,value
2022-09-05T00:00:31.482Z,77.85
2022-09-05T00:03:15.925Z,77.00
2022-09-05T00:06:07.696Z,78.93
2022-09-05T00:08:47.711Z,77.72
2022-09-05T00:11:40.837Z,80.78
2022-09-05T00:14:34.431Z,78.59
2022-09-05T00:17:37.033Z,77.16
2022-09-05T00:24:26.170Z,76.61
2022-09-05T00:24:28.566Z,76.66
2022-09-05T00:26:29.572Z,78.18
2022-09-05T00:29:12.944Z,79.15
2022-09-05T00:31:57.534Z,79.65
2022-09-05T00:34:47.827Z,79.19
2022-09-05T00:37:29.015Z,83.50
2022-09-05T00:40:17.590Z,81.57
2022-09-05T00:42:51.152Z,79.57
2022-09-05T00:45:28.897Z,79.47
2022-09-05T00:48:03.159Z,83.55
2022-09-05T00:50:43.458Z,83.79
2022-09-05T00:53:21.541Z,81.72
2022-09-05T00:56:00.449Z,79.70
2022-09-05T00:58:41.257Z,78.30
2022-09-05T01:01:27.476Z,78.13
2022-09-05T01:04:28.111Z,76.65
2022-09-05T01:07:17.921Z,77.55
2022-09-05T01:09:58.073Z,77.92
2022-09-05T01:12:50.111Z,77.85
2022-09-05T01:15:32.366Z,77.06
2022-09-05T01:18:32.862Z,76.93
2022-09-05T01:21:26.146Z,81.65
2022-09-05T01:24:09.116Z,81.06
2022-09-05T01:26:57.159Z,82.81
2022-09-05T01:29:35.572Z,86.59
2022-09-05T01:32:23.398Z,87.10
2022-09-05T01:35:37.586Z,85.47
2022-09-05T01:38:12.893Z,86.74
2022-09-05T01:40:51.598Z,84.49
2022-09-05T01:44:10.494Z,82.61
2022-09-05T01:46:50.840Z,86.74
2022-09-05T01:49:25.863Z,88.14
2022-09-05T01:52:17.963Z,92.68
2022-09-05T01:54:57.987Z,91.33
2022-09-05T01:57:35.402Z,87.14
2022-09-05T02:00:08.968Z,86.50
2022-09-05T02:02:54.966Z,85.39
2022-09-05T02:05:48.691Z,85.74
2022-09-05T02:08:50.547Z,86.24
2022-09-05T02:11:36.191Z,85.12
2022-09-05T02:14:33.856Z,82.96
2022-09-05T02:17:27.223Z,84.02
2022-09-05T02:20:13.304Z,82.58
2022-09-05T02:23:04.446Z,81.73
2022-09-05T02:26:01.423Z,82.57
2022-09-05T02:28:42.847Z,83.50
2022-09-05T02:31:20.048Z,84.80
2022-09-05T02:33:58.721Z,88.72
2022-09-05T02:36:38.215Z,85.66
2022-09-05T02:45:00.324Z,83.02
2022-09-05T02:45:13.700Z,84.49
2022-09-05T02:45:25.611Z,85.15
2022-09-05T02:48:04.177Z,83.47
2022-09-05T02:57:27.403Z,81.87
2022-09-05T02:57:36.377Z,81.16
2022-09-05T02:57:36.693Z,79.92
2022-09-05T02:59:46.694Z,79.25
2022-09-05T03:02:25.621Z,78.33
2022-09-05T03:05:05.439Z,80.16
2022-09-05T03:08:01.171Z,81.88
2022-09-05T03:11:04.931Z,81.98
2022-09-05T03:13:58.651Z,80.34
2022-09-05T03:17:11.289Z,80.96
2022-09-05T03:20:08.837Z,82.58
2022-09-05T03:23:03.758Z,83.42
2022-09-05T03:26:09.990Z,87.08
2022-09-05T03:29:24.046Z,86.54
2022-09-05T03:32:16.723Z,84.59
2022-09-05T03:35:09.172Z,86.02
2022-09-05T03:37:58.257Z,88.86
2022-09-05T03:40:55.002Z,88.19
2022-09-05T03:43:46.721Z,84.81
2022-09-05T03:46:35.448Z,82.95
2022-09-05T03:50:57.695Z,83.60
2022-09-05T03:57:20.042Z,83.39
2022-09-05T03:57:32.390Z,82.67
2022-09-05T04:00:08.204Z,83.95
2022-09-05T04:08:07.559Z,85.05
2022-09-05T04:08:27.563Z,86.46
2022-09-05T04:08:42.301Z,86.26
2022-09-05T04:11:15.233Z,83.73
2022-09-05T04:13:50.170Z,82.68
2022-09-05T04:16:22.435Z,82.48
2022-09-05T04:18:54.852Z,82.02
2022-09-05T04:21:27.968Z,81.71
2022-09-05T04:24:07.072Z,81.15
2022-09-05T04:26:54.496Z,82.06
2022-09-05T04:29:31.969Z,84.30
2022-09-05T04:32:19.153Z,84.50
2022-09-05T04:35:05.574Z,84.98
2022-09-05T04:37:48.739Z,86.36
2022-09-05T04:40:41.059Z,89.58
2022-09-05T04:43:16.149Z,88.43
2022-09-05T04:45:49.089Z,86.13
2022-09-05T04:48:25.399Z,84.87
2022-09-05T04:51:06.137Z,83.02
2022-09-05T04:53:59.840Z,82.59
2022-09-05T04:56:34.679Z,83.64
2022-09-05T05:01:01.755Z,84.25
2022-09-05T05:06:00.846Z,84.71
2022-09-05T05:06:08.356Z,86.86
2022-09-05T05:07:57.561Z,88.15
2022-09-05T05:14:07.643Z,85.74
2022-09-05T05:17:59.516Z,86.29
2022-09-05T05:18:15.973Z,88.38
2022-09-05T05:19:18.719Z,85.63
2022-09-05T05:21:52.144Z,84.22
2022-09-05T05:24:24.161Z,82.87
2022-09-05T05:26:56.990Z,82.29
2022-09-05T05:29:36.590Z,82.31
2022-09-05T05:32:07.586Z,83.06
2022-09-05T05:34:37.786Z,82.73
2022-09-05T05:37:12.795Z,82.99
2022-09-05T05:39:45.688Z,82.16
2022-09-05T05:42:21.084Z,81.27
2022-09-05T05:44:53.860Z,81.87
2022-09-05T05:47:28.376Z,81.19
2022-09-05T05:50:05.658Z,80.54
2022-09-05T05:52:57.636Z,81.24
2022-09-05T05:55:52.750Z,80.94
2022-09-05T05:58:46.714Z,79.77
2022-09-05T06:01:52.943Z,79.85
2022-09-05T06:05:04.260Z,78.58
2022-09-05T06:09:21.535Z,78.04
2022-09-05T06:14:50.672Z,77.91
2022-09-05T06:14:57.363Z,77.75
2022-09-05T06:17:35.191Z,77.96
2022-09-05T06:22:06.314Z,77.15
2022-09-05T06:24:04.348Z,76.98
2022-09-05T06:26:58.534Z,77.37
2022-09-05T06:29:46.460Z,77.27
2022-09-05T06:32:35.202Z,76.59
2022-09-05T06:35:23.422Z,77.80
2022-09-05T06:38:06.065Z,77.47
2022-09-05T06:40:41.104Z,77.03
2022-09-05T06:43:32.468Z,76.45
2022-09-05T06:46:12.978Z,76.69
2022-09-05T06:49:30.143Z,76.53
2022-09-05T06:52:24.983Z,75.54
2022-09-05T06:55:20.798Z,75.20
2022-09-05T06:58:41.290Z,75.69
2022-09-05T07:01:10.532Z,74.79
2022-09-05T07:04:33.185Z,74.63
2022-09-05T07:07:06.789Z,73.37
2022-09-05T07:09:57.383Z,72.30
2022-09-05T07:12:30.134Z,71.98
2022-09-05T07:15:12.877Z,71.83
2022-09-05T07:18:09.529Z,71.62
2022-09-05T07:21:15.592Z,71.59
2022-09-05T07:24:06.389Z,71.11
2022-09-05T07:26:54.694Z,69.72
2022-09-05T07:29:29.688Z,68.81
2022-09-05T07:31:59.966Z,68.03
2022-09-05T07:34:30.753Z,68.72
2022-09-05T07:37:15.133Z,67.51
2022-09-05T07:39:53.321Z,67.60
2022-09-05T07:42:27.343Z,66.86
2022-09-05T07:44:57.863Z,64.87
2022-09-05T07:47:31.075Z,63.42
2022-09-05T07:53:16.673Z,62.78
2022-09-05T07:56:52.641Z,60.72
2022-09-05T07:57:08.676Z,62.41
2022-09-05T07:58:44.008Z,60.08
2022-09-05T08:01:14.500Z,58.43
2022-09-05T08:03:44.248Z,57.43
2022-09-05T08:07:45.798Z,55.88
2022-09-05T08:10:06.740Z,55.41
2022-09-05T08:12:11.342Z,56.23
2022-09-05T08:14:46.247Z,54.01
2022-09-05T08:17:19.132Z,53.75
2022-09-05T08:20:09.273Z,53.12
2022-09-05T08:22:52.605Z,53.01
2022-09-05T08:25:38.931Z,51.78
2022-09-05T08:28:22.001Z,51.12
2022-09-05T08:31:00.059Z,51.69
2022-09-05T08:33:34.075Z,50.76
2022-09-05T08:36:06.805Z,50.30
2022-09-05T08:38:40.552Z,48.75
2022-09-05T08:41:18.885Z,49.97
2022-09-05T08:46:39.337Z,48.25
2022-09-05T08:46:54.394Z,49.65
2022-09-05T08:49:46.352Z,47.96
2022-09-05T08:52:18.239Z,47.52
2022-09-05T08:55:05.796Z,48.00
2022-09-05T08:58:07.101Z,46.84
2022-09-05T09:00:50.431Z,47.32
2022-09-05T09:03:33.594Z,44.65
2022-09-05T09:06:31.497Z,46.33
2022-09-05T09:09:19.397Z,45.92
2022-09-05T09:11:55.435Z,44.00
2022-09-05T09:14:39.258Z,46.02
2022-09-05T09:17:22.786Z,43.99
2022-09-05T09:20:11.043Z,44.87
2022-09-05T09:22:42.880Z,43.58
2022-09-05T09:25:18.402Z,42.49
2022-09-05T09:28:46.949Z,43.66
2022-09-05T09:31:00.494Z,42.10
2022-09-05T09:33:38.394Z,43.27
2022-09-05T09:36:20.550Z,42.13
2022-09-05T09:39:32.286Z,42.10
2022-09-05T09:42:33.626Z,41.32
2022-09-05T09:45:53.146Z,41.17
2022-09-05T09:49:03.131Z,42.43
2022-09-05T09:51:52.592Z,40.37
2022-09-05T09:54:56.983Z,40.67
2022-09-05T09:57:57.997Z,39.68
2022-09-05T10:00:29.322Z,42.69
2022-09-05T10:10:33.591Z,41.40
2022-09-05T10:10:52.717Z,41.35
2022-09-05T10:11:03.884Z,41.69
2022-09-05T10:13:31.622Z,40.44
2022-09-05T10:16:41.195Z,41.53
2022-09-05T10:22:57.959Z,40.65
2022-09-05T10:25:45.653Z,40.68
2022-09-05T10:28:25.917Z,41.62
2022-09-05T10:33:54.140Z,41.45
2022-09-05T10:35:12.790Z,40.13
2022-09-05T10:36:52.540Z,39.21
2022-09-05T10:39:24.498Z,38.95
2022-09-05T10:42:03.149Z,39.68
2022-09-05T10:44:41.002Z,38.50
2022-09-05T10:47:19.533Z,40.30
2022-09-05T10:49:50.928Z,37.58
2022-09-05T10:52:28.842Z,36.75
2022-09-05T10:55:18.526Z,36.50
2022-09-05T10:58:01.014Z,34.65
2022-09-05T11:02:22.182Z,37.49
2022-09-05T11:03:51.257Z,36.41
2022-09-05T11:06:26.109Z,36.23
2022-09-05T11:09:07.370Z,37.14
2022-09-05T11:11:46.135Z,36.51
2022-09-05T11:14:36.615Z,36.48
2022-09-05T11:17:14.042Z,34.31
2022-09-05T11:19:46.080Z,33.30
2022-09-05T11:22:23.440Z,33.17
2022-09-05T11:24:56.566Z,33.23
2022-09-05T11:27:32.995Z,32.98
2022-09-05T11:30:06.996Z,32.46
2022-09-05T11:39:00.731Z,33.63
2022-09-05T11:40:02.213Z,32.09
2022-09-05T11:40:08.819Z,32.61
2022-09-05T11:42:34.809Z,32.12
2022-09-05T11:45:36.862Z,33.32
2022-09-05T11:48:53.562Z,33.14
2022-09-05T11:52:12.456Z,31.13
2022-09-05T11:55:09.158Z,31.04
2022-09-05T11:58:43.745Z,32.41
2022-09-05T12:04:14.499Z,32.34
2022-09-05T12:07:30.485Z,30.83
2022-09-05T12:10:45.675Z,32.27
2022-09-05T12:13:31.304Z,32.41
2022-09-05T12:16:08.153Z,33.06
2022-09-05T12:18:48.512Z,32.58
2022-09-05T12:21:27.209Z,31.58
2022-09-05T12:25:15.371Z,31.48
2022-09-05T12:27:41.240Z,32.17
2022-09-05T12:29:55.533Z,32.69
2022-09-05T12:33:39.402Z,31.71
2022-09-05T12:36:09.836Z,32.08
2022-09-05T12:40:44.591Z,31.76
2022-09-05T12:41:35.369Z,31.73
2022-09-05T12:41:43.319Z,31.56
2022-09-05T12:44:41.560Z,31.56
2022-09-05T12:47:16.892Z,32.03
2022-09-05T12:50:02.483Z,32.22
2022-09-05T12:52:42.444Z,31.90
2022-09-05T12:55:20.461Z,31.48
2022-09-05T13:02:25.054Z,32.24
2022-09-05T13:03:05.900Z,31.73
2022-09-05T13:03:53.363Z,31.57
2022-09-05T13:06:34.917Z,31.53
2022-09-05T13:09:08.113Z,31.22
2022-09-05T13:14:58.511Z,31.63
2022-09-05T13:15:07.960Z,31.59
2022-09-05T13:17:44.174Z,31.32
2022-09-05T13:20:17.975Z,32.51
2022-09-05T13:22:50.451Z,32.43
2022-09-05T13:25:24.926Z,33.33
2022-09-05T13:28:01.473Z,32.89
2022-09-05T13:36:12.622Z,33.04
2022-09-05T13:38:08.309Z,32.61
2022-09-05T13:38:19.332Z,31.68
2022-09-05T13:39:07.752Z,32.19
2022-09-05T13:41:38.275Z,32.06
2022-09-05T13:44:27.164Z,32.80
2022-09-05T13:47:02.011Z,31.96
2022-09-05T13:49:43.429Z,32.64
2022-09-05T13:52:29.060Z,32.60
2022-09-05T13:55:12.904Z,32.65
2022-09-05T13:57:44.854Z,32.11
2022-09-05T14:00:51.716Z,34.58
2022-09-05T14:03:58.132Z,35.24
2022-09-05T14:06:51.451Z,34.85
2022-09-05T14:09:39.676Z,34.56
2022-09-05T14:12:18.955Z,34.99
2022-09-05T14:15:09.158Z,34.03
2022-09-05T14:17:59.968Z,32.25
2022-09-05T14:20:49.713Z,33.95
2022-09-05T14:23:21.060Z,33.07
2022-09-05T14:25:53.304Z,32.45
2022-09-05T14:28:27.270Z,33.79
2022-09-05T14:35:00.702Z,34.19
2022-09-05T14:37:43.228Z,33.75
2022-09-05T14:38:00.594Z,34.09
2022-09-05T14:40:29.487Z,35.81
2022-09-05T14:43:37.570Z,35.42
2022-09-05T14:46:20.471Z,35.24
2022-09-05T14:49:15.569Z,34.87
2022-09-05T14:51:48.017Z,34.90
2022-09-05T15:02:38.209Z,34.63
2022-09-05T15:02:50.548Z,34.62
2022-09-05T15:03:05.028Z,34.68
2022-09-05T15:05:41.695Z,34.47
2022-09-05T15:08:35.296Z,34.00
2022-09-05T15:12:17.317Z,35.33
2022-09-05T15:13:58.128Z,34.74
2022-09-05T15:16:27.482Z,34.39
2022-09-05T15:18:56.391Z,34.47
2022-09-05T15:21:30.605Z,35.82
2022-09-05T15:24:03.921Z,35.84
2022-09-05T15:26:32.909Z,35.05
2022-09-05T15:29:13.859Z,34.58
2022-09-05T15:31:43.907Z,35.07
2022-09-05T15:34:26.276Z,36.19
2022-09-05T15:36:55.326Z,36.71
2022-09-05T15:39:39.126Z,35.34
2022-09-05T15:42:17.571Z,35.29
2022-09-05T15:45:08.706Z,36.41
2022-09-05T15:47:36.377Z,35.85
2022-09-05T15:50:08.919Z,34.77
2022-09-05T15:52:52.563Z,36.12
2022-09-05T15:55:25.076Z,35.08
2022-09-05T15:57:56.138Z,35.48
2022-09-05T16:00:42.593Z,35.52
2022-09-05T16:04:34.840Z,36.85
2022-09-05T16:10:38.654Z,35.20
2022-09-05T16:10:43.468Z,35.72
2022-09-05T16:12:16.932Z,37.53
2022-09-05T16:15:30.063Z,36.83
2022-09-05T16:23:18.886Z,36.13
2022-09-05T16:23:31.431Z,37.42
2022-09-05T16:23:42.059Z,36.58
2022-09-05T16:26:19.173Z,40.02
2022-09-05T16:29:03.188Z,37.19
2022-09-05T16:31:39.687Z,36.73
2022-09-05T16:34:13.888Z,39.08
2022-09-05T16:37:07.138Z,39.31
2022-09-05T16:39:39.615Z,37.74
2022-09-05T16:42:16.023Z,39.28
2022-09-05T16:44:50.631Z,36.95
2022-09-05T16:47:25.542Z,38.84
2022-09-05T16:50:00.685Z,39.46
2022-09-05T16:52:38.261Z,39.90
2022-09-05T16:55:29.014Z,39.50
2022-09-05T16:58:05.470Z,40.41
2022-09-05T17:00:51.257Z,40.46
2022-09-05T17:03:28.137Z,39.80
2022-09-05T17:06:05.043Z,40.47
2022-09-05T17:08:36.957Z,40.35
2022-09-05T17:11:13.872Z,40.93
2022-09-05T17:14:07.165Z,39.84
2022-09-05T17:16:40.529Z,41.38
2022-09-05T17:19:19.161Z,41.66
2022-09-05T17:25:11.107Z,41.97
2022-09-05T17:29:17.120Z,42.90
2022-09-05T17:29:39.921Z,42.44
2022-09-05T17:31:49.805Z,42.70
2022-09-05T17:33:52.334Z,43.20
2022-09-05T17:36:38.520Z,43.66
2022-09-05T17:39:35.974Z,44.40
2022-09-05T17:42:29.175Z,45.12
2022-09-05T17:45:10.055Z,44.81
2022-09-05T17:47:48.225Z,44.97
2022-09-05T17:50:44.151Z,45.97
2022-09-05T17:53:25.962Z,45.67
2022-09-05T17:56:33.463Z,45.42
2022-09-05T17:59:05.987Z,45.23
2022-09-05T18:01:35.473Z,46.02
2022-09-05T18:04:16.347Z,45.60
2022-09-05T18:06:59.219Z,46.34
2022-09-05T18:10:12.611Z,46.50
2022-09-05T18:13:13.744Z,47.58
2022-09-05T18:16:12.019Z,48.16
2022-09-05T18:19:32.260Z,48.28
2022-09-05T18:21:48.489Z,48.51
2022-09-05T18:30:30.822Z,48.43
2022-09-05T18:33:53.434Z,48.22
2022-09-05T18:36:34.759Z,48.99
2022-09-05T18:39:39.861Z,49.07
2022-09-05T18:42:25.867Z,49.65
2022-09-05T18:45:14.514Z,50.05
2022-09-05T18:47:52.968Z,50.13
2022-09-05T18:50:32.380Z,50.03
2022-09-05T18:53:10.460Z,50.37
2022-09-05T18:56:12.398Z,51.31
2022-09-05T18:58:51.771Z,51.30
2022-09-05T19:01:32.337Z,51.14
2022-09-05T19:04:04.555Z,51.49
2022-09-05T19:06:43.498Z,51.72
2022-09-05T19:09:26.684Z,51.80
2022-09-05T19:12:15.829Z,51.71
2022-09-05T19:14:53.366Z,51.55
2022-09-05T19:17:27.421Z,51.60
2022-09-05T19:20:30.687Z,51.32
2022-09-05T19:23:10.494Z,51.68
2022-09-05T19:25:43.525Z,51.45
2022-09-05T19:32:13.683Z,51.81
2022-09-05T19:36:54.919Z,52.06
2022-09-05T19:37:10.672Z,52.17
2022-09-05T19:37:28.865Z,51.80
2022-09-05T19:44:07.694Z,52.51
2022-09-05T19:47:34.266Z,53.12
2022-09-05T19:47:48.545Z,53.11
2022-09-05T19:50:55.923Z,53.70
2022-09-05T19:53:24.483Z,54.67
2022-09-05T19:55:54.584Z,54.71
2022-09-05T19:58:25.342Z,54.91
2022-09-05T20:01:03.711Z,55.41
2022-09-05T20:03:37.158Z,55.92
2022-09-05T20:06:26.793Z,56.66
2022-09-05T20:09:10.018Z,56.72
2022-09-05T20:11:46.396Z,58.18
2022-09-05T20:14:20.943Z,57.88
2022-09-05T20:16:50.021Z,57.69
2022-09-05T20:19:39.172Z,57.39
2022-09-05T20:22:48.233Z,58.10
2022-09-05T20:25:00.369Z,58.74
2022-09-05T20:27:31.647Z,60.16
2022-09-05T20:30:01.797Z,60.17
2022-09-05T20:32:39.454Z,60.59
2022-09-05T20:39:14.158Z,60.48
2022-09-05T20:43:18.387Z,60.61
2022-09-05T20:43:21.593Z,64.30
2022-09-05T20:43:58.244Z,62.82
2022-09-05T20:50:44.293Z,63.87
2022-09-05T20:54:14.876Z,65.83
2022-09-05T20:54:27.031Z,63.44
2022-09-05T20:55:37.848Z,62.46
2022-09-05T20:57:50.742Z,62.10
2022-09-05T21:00:23.413Z,62.63
2022-09-05T21:02:58.379Z,63.13
2022-09-05T21:05:29.825Z,64.05
2022-09-05T21:08:24.356Z,64.54
2022-09-05T21:10:55.750Z,65.12
2022-09-05T21:13:27.511Z,64.18
2022-09-05T21:15:57.318Z,64.28
2022-09-05T21:18:33.769Z,64.65
2022-09-05T21:21:08.929Z,64.93
2022-09-05T21:24:17.344Z,66.45
2022-09-05T21:26:48.787Z,68.57
2022-09-05T21:29:24.480Z,68.26
2022-09-05T21:32:00.078Z,68.19
2022-09-05T21:34:32.585Z,69.73
2022-09-05T21:37:06.345Z,68.43
2022-09-05T21:39:40.117Z,67.24
2022-09-05T21:43:24.582Z,66.67
2022-09-05T21:47:39.617Z,66.81
2022-09-05T21:47:53.333Z,67.43
2022-09-05T21:50:31.428Z,68.67
2022-09-05T21:53:48.296Z,68.65
2022-09-05T21:59:26.231Z,67.76
2022-09-05T21:59:28.694Z,66.79
2022-09-05T22:01:37.476Z,67.28
2022-09-05T22:04:22.413Z,67.75
2022-09-05T22:06:53.159Z,69.12
2022-09-05T22:09:22.865Z,70.01
2022-09-05T22:11:51.441Z,69.99
2022-09-05T22:14:20.536Z,70.37
2022-09-05T22:16:50.364Z,69.43
2022-09-05T22:19:36.979Z,69.11
2022-09-05T22:22:16.435Z,68.44
2022-09-05T22:24:49.411Z,67.78
2022-09-05T22:27:19.307Z,67.98
2022-09-05T22:29:51.755Z,67.65
2022-09-05T22:32:34.821Z,68.30
2022-09-05T22:35:27.295Z,69.08
2022-09-05T22:38:00.784Z,70.43
2022-09-05T22:40:30.533Z,70.06
2022-09-05T22:42:59.818Z,71.02
2022-09-05T22:45:28.982Z,70.63
2022-09-05T22:47:57.179Z,71.44
2022-09-05T22:50:27.552Z,71.77
2022-09-05T22:52:55.406Z,71.20
2022-09-05T22:55:23.227Z,71.08
2022-09-05T22:57:51.166Z,71.32
2022-09-05T23:00:19.108Z,72.85
2022-09-05T23:02:51.677Z,72.42
2022-09-05T23:05:20.389Z,71.88
2022-09-05T23:07:49.640Z,71.36
2022-09-05T23:10:19.785Z,70.30
2022-09-05T23:12:48.381Z,69.37
2022-09-05T23:15:16.813Z,69.32
2022-09-05T23:17:45.272Z,69.31
2022-09-05T23:20:13.333Z,69.80
2022-09-05T23:22:43.203Z,69.94
2022-09-05T23:25:12.595Z,70.05
2022-09-05T23:27:41.505Z,71.61
2022-09-05T23:30:10.647Z,71.15
2022-09-05T23:32:45.342Z,74.70
2022-09-05T23:35:13.675Z,74.84
2022-09-05T23:37:44.088Z,73.81
2022-09-05T23:40:14.459Z,74.41
2022-09-05T23:42:42.262Z,77.66
2022-09-05T23:45:10.954Z,76.78
2022-09-05T23:47:39.028Z,76.11
2022-09-05T23:50:07.901Z,75.91
2022-09-05T23:52:40.416Z,79.20
2022-09-05T23:55:09.471Z,77.86
2022-09-05T23:57:38.724Z,75.35
